Date,TemperatureHighF,TemperatureAvgF,TemperatureLowF,DewpointHighF,DewpointAvgF,DewpointLowF,HumidityHigh,HumidityAvg,HumidityLow,PressureMaxIn,PressureMinIn,WindSpeedMaxMPH,WindSpeedAvgMPH,GustSpeedMaxMPH,PrecipitationSumIn
2013-1-1,30.3,23.0,13.4,24.6,11.4,3.5,85,62,45,30.25,30.08,12,5,15,0.00
2013-1-2,39.0,22.6,10.2,13.9,7.4,1.1,75,54,31,30.29,30.10,8,2,11,0.00
2013-1-3,46.4,30.2,17.4,23.2,16.5,9.1,79,58,34,30.39,30.19,12,3,20,0.08
2013-1-4,45.1,29.3,18.3,23.7,14.8,10.2,78,57,30,30.40,30.24,13,2,18,0.00
2013-1-5,49.6,35.3,21.3,25.7,20.4,14.0,77,56,35,30.27,30.04,13,3,19,0.00
2013-1-6,42.6,32.5,19.4,26.4,17.3,10.5,69,54,36,30.37,30.04,16,6,23,0.00
2013-1-7,53.4,32.5,17.2,24.2,16.0,10.0,79,53,27,30.40,30.08,11,3,18,0.00
2013-1-8,60.4,42.4,23.1,27.5,19.5,13.6,74,43,19,30.17,29.96,10,4,18,0.00
2013-1-9,66.9,49.1,37.7,41.4,30.1,20.3,84,51,25,30.40,30.09,8,3,10,0.00
2013-1-10,52.8,45.6,40.8,52.3,38.1,22.8,98,78,41,30.40,29.66,14,5,20,0.46
2013-1-11,66.3,55.5,47.1,50.1,44.1,38.7,98,69,38,29.79,29.62,17,7,22,0.00
2013-1-12,57.0,46.4,30.9,50.7,33.9,22.4,88,64,36,29.90,29.69,17,6,24,0.37
2013-1-13,31.2,24.2,15.9,27.8,14.6,7.1,87,67,51,30.34,29.87,0,0,0,0.00
2013-1-14,33.6,20.9,13.6,14.2,8.1,5.3,74,58,36,30.45,30.34,6,1,9,0.00
2013-1-15,33.0,23.1,13.2,16.1,11.8,7.3,80,63,42,30.40,30.09,10,3,13,0.00
2013-1-16,46.5,30.1,15.4,20.7,13.8,9.2,79,53,30,30.16,29.94,11,3,17,0.00
2013-1-17,46.7,32.5,21.2,27.8,16.8,9.4,82,55,29,30.48,30.05,14,5,18,0.00
2013-1-18,57.5,38.7,19.5,23.8,17.2,10.7,74,46,24,30.49,30.03,14,5,26,0.00
2013-1-19,68.3,51.4,40.8,29.5,24.2,19.7,44,35,23,30.07,29.77,14,8,23,0.00
2013-1-20,45.8,32.6,23.3,22.9,9.8,3.1,58,39,29,30.30,30.03,14,7,19,0.00
2013-1-21,30.2,21.6,15.2,6.8,1.0,-8.0,54,41,26,30.37,30.26,17,9,25,0.00
2013-1-22,17.6,14.9,12.5,4.4,2.3,0.6,58,57,51,30.37,30.34,4,2,5,0.00
2013-1-23,50.1,34.3,9.8,19.7,12.5,-2.0,73,42,28,30.35,30.03,11,4,15,0.00
2013-1-24,27.3,22.3,14.1,8.1,1.9,-2.0,52,41,33,30.55,30.18,15,9,24,0.00
2013-1-25,49.2,33.5,24.8,17.6,10.7,5.0,52,39,28,30.21,30.03,11,4,16,0.00
2013-1-26,47.1,33.7,23.5,16.8,11.4,6.7,59,40,27,30.35,30.17,9,4,13,0.00
2013-1-27,55.2,38.6,28.2,50.7,31.5,9.9,98,77,44,30.23,29.84,12,7,18,0.04
2013-1-28,75.9,63.6,55.2,57.3,53.6,50.3,89,71,44,29.87,29.70,15,6,23,0.00
2013-1-29,69.0,61.6,52.5,59.4,55.1,50.7,98,80,62,29.71,29.30,16,7,26,1.69
2013-1-30,52.5,38.7,26.9,51.9,28.8,9.4,98,69,44,29.87,29.25,22,10,29,0.08
2013-1-31,34.3,24.6,10.2,16.9,7.0,-6.0,53,46,40,30.41,29.87,21,10,35,0.00
2013-2-1,33.4,20.9,7.5,6.0,-0.9,-8.0,50,38,30,30.46,30.14,12,5,20,0.00
2013-2-2,46.5,35.1,28.5,24.3,14.4,4.4,77,43,30,30.17,29.97,19,7,27,0.00
2013-2-3,47.4,31.9,21.3,28.0,15.1,3.5,91,53,27,30.14,29.93,20,6,31,0.05
2013-2-4,62.9,40.1,28.0,30.9,21.2,13.3,68,49,25,29.93,29.65,15,6,21,0.00
2013-2-5,61.1,39.8,27.1,29.7,23.4,19.0,78,55,27,30.08,29.78,15,4,23,0.00
2013-2-6,57.5,40.5,23.9,33.0,23.5,18.3,82,54,27,30.16,29.97,15,4,17,0.00
2013-2-7,51.6,43.5,37.9,45.2,32.9,23.6,90,67,49,30.01,29.76,15,5,19,0.16
2013-2-8,38.1,35.2,32.1,32.5,25.4,22.1,83,68,53,30.32,29.98,14,7,19,0.00
2013-2-9,46.9,36.5,29.8,34.5,23.2,20.5,85,60,39,30.32,29.92,16,8,21,0.09
2013-2-10,60.9,49.0,38.6,48.8,36.2,21.6,94,66,27,29.95,29.45,19,10,30,0.54
2013-2-11,55.4,42.4,29.3,22.7,19.1,15.0,59,40,26,30.11,29.70,21,9,36,0.00
2013-2-12,51.0,36.6,23.5,27.2,20.5,16.0,80,54,36,30.14,29.89,7,2,9,0.00
2013-2-13,59.3,43.5,31.2,30.4,23.1,19.1,70,47,25,29.89,29.66,14,4,20,0.00
2013-2-14,61.7,46.4,36.1,30.9,25.2,21.0,69,46,25,30.01,29.74,15,6,20,0.00
2013-2-15,45.6,35.8,26.6,22.9,13.4,4.4,63,41,25,30.22,29.98,13,7,19,0.00
2013-2-16,43.3,28.9,19.2,12.4,7.1,1.3,58,41,23,30.25,30.07,13,4,18,0.00
2013-2-17,51.6,37.4,19.5,26.0,15.7,6.0,56,43,26,30.15,29.83,16,7,20,0.00
2013-2-18,59.0,46.6,32.1,48.0,33.4,14.9,91,61,45,29.84,29.45,27,10,39,0.20
2013-2-19,37.5,29.7,22.6,16.9,8.7,3.1,54,41,30,30.27,29.84,19,10,27,0.00
2013-2-20,28.5,23.1,16.1,7.7,5.1,0.0,55,45,40,30.39,30.21,9,4,12,0.00
2013-2-21,31.4,26.2,20.3,29.4,17.6,5.8,92,71,52,30.27,29.75,25,8,30,0.00
2013-2-22,40.2,31.2,15.9,31.8,21.1,8.2,94,68,39,30.04,29.72,16,5,20,0.00
2013-2-23,51.9,28.3,10.7,26.4,11.6,3.8,81,54,26,30.07,29.88,8,2,10,0.20
2013-2-24,56.3,33.7,12.5,25.1,15.6,5.5,78,52,25,30.07,29.94,10,3,13,0.04
2013-2-25,52.3,38.7,28.5,31.6,24.0,18.9,91,57,32,30.02,29.57,17,7,25,0.12
2013-2-26,37.2,34.8,33.2,36.3,33.3,30.7,98,94,87,29.60,29.26,18,8,26,1.04
2013-2-27,37.4,33.6,31.6,31.1,27.5,23.8,92,78,65,29.87,29.60,15,8,23,0.04
2013-2-28,36.5,33.2,31.1,27.7,24.4,21.3,84,70,55,30.05,29.81,14,8,18,0.00
2013-3-1,38.3,31.8,28.2,26.6,22.8,18.6,84,70,52,30.14,30.02,12,7,15,0.09
2013-3-2,39.7,29.0,19.7,19.8,13.8,8.1,75,54,37,30.21,30.13,15,7,20,0.00
2013-3-3,42.4,30.9,15.6,19.4,13.6,7.7,77,50,30,30.19,29.92,10,3,13,0.00
2013-3-4,56.6,43.1,35.0,33.7,25.2,18.6,67,50,34,29.95,29.63,17,8,28,0.00
2013-3-5,41.0,35.1,31.4,31.2,24.1,14.3,89,65,40,30.08,29.68,23,10,38,0.20
2013-3-6,45.3,32.9,22.6,21.2,16.0,12.4,67,50,36,30.32,30.08,17,8,25,0.00
2013-3-7,54.1,36.2,18.8,26.0,19.9,12.8,82,55,28,30.36,30.18,10,4,13,0.00
2013-3-8,57.2,43.5,29.3,27.8,24.5,21.9,81,50,27,30.37,30.12,15,8,20,0.00
2013-3-9,68.9,53.1,40.4,38.2,30.3,23.9,83,45,23,30.12,29.65,18,9,28,0.33
2013-3-10,56.4,52.6,45.6,53.4,46.8,36.3,96,81,49,29.69,29.54,13,5,19,1.12
2013-3-11,45.3,35.8,33.2,38.2,25.7,17.6,85,67,50,29.93,29.61,16,8,21,0.00
2013-3-12,55.5,38.0,26.4,24.3,18.9,14.8,75,49,26,30.17,29.93,21,7,31,0.00
2013-3-13,46.7,35.0,25.3,18.7,12.8,9.2,59,41,27,30.37,30.17,17,8,24,0.00
2013-3-14,59.0,38.7,24.4,26.8,19.0,10.3,66,47,25,30.33,29.97,11,4,18,0.00
2013-3-15,76.4,50.8,29.3,40.7,31.8,23.1,81,54,23,30.02,29.53,8,2,11,0.00
2013-3-16,63.8,47.0,38.8,45.5,35.0,29.3,86,64,40,30.01,29.53,16,6,20,0.04
2013-3-17,39.0,35.7,32.7,35.0,29.8,21.3,98,80,58,30.05,29.68,12,6,21,1.16
2013-3-18,55.4,41.6,35.7,37.7,30.0,15.2,98,69,31,29.95,29.62,17,7,26,0.04
2013-3-19,53.6,37.9,24.6,18.4,13.4,8.2,63,39,21,30.17,29.95,13,4,16,0.00
2013-3-20,40.2,31.7,22.6,27.4,11.8,2.0,79,45,29,30.23,30.05,18,8,26,0.00
2013-3-21,42.4,30.9,18.5,13.4,8.5,2.3,53,39,29,30.12,29.90,9,4,12,0.00
2013-3-22,45.3,35.0,31.8,20.5,15.8,12.4,50,45,35,29.99,29.93,9,4,13,0.00
2013-3-24,31.4,31.2,31.2,28.6,28.5,28.4,90,90,89,29.69,29.63,15,12,19,0.21
2013-3-25,50.3,33.6,31.2,26.3,18.1,16.2,60,53,38,30.14,29.94,14,8,19,0.20
2013-3-26,57.9,38.3,23.3,23.8,17.8,11.2,65,46,25,30.30,30.14,13,6,20,0.00
2013-3-27,61.7,38.7,18.6,29.1,19.1,12.3,79,50,24,30.34,30.20,6,2,10,0.00
2013-3-28,60.4,46.8,35.4,31.7,25.9,19.6,62,45,30,30.29,30.11,13,6,17,0.00
2013-3-29,66.9,53.3,38.8,41.2,36.3,30.6,83,54,34,30.16,30.07,10,4,13,0.00
2013-3-30,56.8,47.0,37.7,46.7,39.9,33.0,98,78,47,30.16,29.82,15,4,19,0.16
2013-3-31,73.2,57.3,47.3,53.3,39.3,26.7,96,59,21,29.88,29.70,15,5,23,0.00
2013-4-1,56.4,44.7,35.2,27.6,19.3,10.7,53,37,22,30.20,29.85,13,6,19,0.00
2013-4-2,57.2,40.6,25.1,22.7,14.2,8.7,60,36,20,30.31,30.15,8,2,12,0.00
2013-4-3,58.1,44.0,30.3,21.8,17.9,13.7,54,36,22,30.34,30.14,13,5,20,0.00
2013-4-4,68.9,48.6,28.2,30.7,19.9,13.8,73,36,15,30.19,29.89,9,2,14,0.00
2013-4-5,74.6,55.1,35.0,34.7,27.0,22.2,70,38,16,30.11,29.90,8,3,13,0.00
2013-4-6,77.3,64.7,51.0,36.8,31.1,27.3,47,30,18,29.93,29.55,21,8,32,0.00
2013-4-7,87.8,68.4,49.4,54.6,41.8,34.6,69,42,18,29.81,29.62,13,4,27,0.00
2013-4-8,87.4,71.6,60.8,54.6,50.5,46.3,73,50,28,29.74,29.57,14,7,23,0.00
2013-4-9,81.3,70.2,63.5,55.6,53.6,51.1,71,57,40,29.77,29.64,19,6,27,0.00
2013-4-10,83.1,65.2,58.4,64.8,57.5,54.1,98,77,42,29.72,29.44,27,5,30,1.70
2013-4-11,60.0,46.8,40.6,59.5,36.2,22.1,98,68,46,29.68,29.54,14,7,20,0.08
2013-4-12,46.7,41.8,35.0,27.8,25.0,21.4,69,52,40,29.95,29.65,14,6,21,0.00
2013-4-13,69.4,50.8,32.0,36.7,29.1,24.2,81,47,23,30.04,29.78,13,4,20,0.00
2013-4-14,82.5,65.1,47.4,48.5,40.3,34.5,72,44,19,29.82,29.42,24,10,32,0.00
2013-4-15,73.9,60.9,51.9,60.7,52.3,47.2,89,74,55,29.94,29.59,14,5,27,0.42
2013-4-16,50.9,47.0,44.4,48.0,44.2,40.7,97,90,83,30.06,29.85,18,6,23,0.81
2013-4-17,88.1,66.4,48.9,62.7,53.3,44.1,98,68,32,30.06,29.52,18,7,28,0.00
2013-4-18,75.5,59.5,40.8,63.7,50.8,22.8,98,75,48,29.71,29.40,19,10,33,2.11
2013-4-19,57.5,44.1,35.7,24.9,20.8,16.1,53,41,25,30.04,29.68,18,10,28,0.00
2013-4-20,64.0,47.1,29.3,31.6,23.5,18.4,75,43,21,30.27,30.01,9,3,15,0.00
2013-4-21,68.0,54.2,43.5,35.2,30.4,25.6,52,41,27,30.36,30.14,14,8,18,0.00
2013-4-22,77.0,60.5,37.9,40.6,33.5,28.4,73,40,20,30.19,29.82,19,5,26,0.00
2013-4-23,60.4,51.1,39.3,54.9,43.6,37.5,95,78,47,29.98,29.81,16,5,20,0.87
2013-4-24,61.3,45.7,36.8,37.7,28.7,19.8,94,57,24,30.19,29.95,15,7,24,0.04
2013-4-25,73.0,53.4,34.3,31.1,27.1,22.9,73,40,19,30.26,30.14,11,4,16,0.00
2013-4-26,64.0,54.3,47.3,43.6,38.6,30.9,74,56,42,30.29,30.16,14,5,23,0.00
2013-4-27,54.5,51.6,49.1,52.5,49.2,42.5,98,92,73,30.21,29.85,11,4,14,0.63
2013-4-28,60.2,54.5,46.2,52.5,48.4,43.6,98,81,60,29.90,29.81,12,4,17,0.00
2013-4-29,86.3,65.8,42.2,57.2,49.2,41.4,98,62,27,29.88,29.60,14,5,20,0.00
2013-4-30,92.6,76.1,58.4,61.1,49.5,34.8,90,46,15,29.80,29.62,13,6,20,0.00
2013-5-1,90.8,72.9,53.6,59.3,49.3,42.1,86,48,19,29.98,29.80,13,3,21,0.00
2013-5-2,74.8,60.2,42.8,60.1,48.4,40.3,93,68,35,30.12,29.95,14,6,21,0.33
2013-5-3,42.8,40.9,39.0,40.6,39.3,37.6,98,94,90,30.07,29.77,12,6,15,2.56
2013-5-4,55.0,46.0,39.2,43.6,39.0,33.9,98,78,52,29.97,29.77,9,4,11,0.00
2013-5-5,66.7,53.8,44.2,55.6,49.9,40.6,98,87,58,29.97,29.83,10,4,12,0.08
2013-5-6,74.1,62.3,52.8,55.9,50.6,44.1,97,69,37,29.96,29.82,12,5,21,0.00
2013-5-7,87.2,69.7,56.8,60.1,50.7,40.0,93,57,21,29.94,29.82,9,2,12,0.00
2013-5-8,90.8,69.9,51.2,59.4,49.3,38.2,96,56,18,29.95,29.82,10,2,16,0.04
2013-5-9,79.7,68.5,61.7,62.6,56.6,51.0,84,67,39,29.89,29.70,11,3,20,0.29
2013-5-10,68.3,61.4,55.7,60.1,53.9,48.4,95,77,57,29.93,29.72,11,5,14,0.00
2013-5-11,75.3,61.2,47.3,54.4,39.4,22.6,95,51,20,30.12,29.88,21,7,29,0.00
2013-5-12,69.6,54.0,38.8,31.3,25.0,17.4,65,35,17,30.17,30.04,16,5,23,0.00
2013-5-13,83.6,61.1,36.6,44.0,33.9,27.6,87,44,14,30.18,29.92,9,3,13,0.00
2013-5-14,97.8,77.0,52.7,52.9,42.7,32.2,79,36,11,29.93,29.62,14,6,23,0.00
2013-5-15,97.5,81.3,67.4,60.3,50.0,41.2,61,35,17,29.82,29.62,12,6,19,0.00
2013-5-16,89.6,75.0,63.8,64.2,57.2,48.2,87,56,30,29.83,29.69,14,3,18,0.00
2013-5-17,87.8,70.9,61.5,66.6,60.2,52.7,92,70,41,29.86,29.76,10,3,14,0.04
2013-5-18,90.8,75.0,60.9,67.4,61.0,55.2,98,67,32,29.89,29.70,11,4,14,0.00
2013-5-19,95.5,81.3,68.3,71.4,63.0,55.7,86,57,30,29.79,29.50,16,6,24,0.00
2013-5-20,86.5,73.2,62.6,67.8,62.4,51.4,98,72,39,29.77,29.55,22,7,43,3.23
2013-5-21,85.2,71.0,62.4,65.2,60.1,53.6,98,72,42,29.68,29.55,10,4,25,0.00
2013-5-22,80.0,69.3,62.2,62.6,53.8,45.5,96,62,33,29.77,29.53,14,6,20,0.00
2013-5-23,68.5,62.8,56.8,59.3,50.8,43.2,81,65,47,30.14,29.77,13,6,23,0.00
2013-5-24,79.7,60.7,46.2,50.1,38.5,29.1,94,50,18,30.35,30.13,11,4,13,0.00
2013-5-25,70.7,60.9,48.9,56.9,46.4,35.8,83,60,35,30.26,30.01,14,4,19,0.13
2013-5-26,90.6,72.5,56.6,65.1,55.9,48.6,75,58,37,30.11,29.82,11,6,17,0.00
2013-5-27,87.2,72.2,65.4,67.5,62.1,57.2,97,72,46,29.89,29.62,22,5,29,0.33
2013-5-28,89.6,75.0,66.0,71.9,64.1,60.1,97,71,43,29.76,29.63,21,5,27,0.45
2013-5-29,92.4,79.3,66.5,64.9,59.4,51.4,90,54,29,29.85,29.66,14,6,24,0.00
2013-5-30,88.7,76.8,65.4,70.8,63.2,57.7,97,64,40,29.79,29.63,17,8,34,0.62
2013-5-31,84.7,71.0,63.8,70.9,65.4,62.3,98,84,58,29.74,29.55,24,6,31,1.41
2013-6-1,83.1,70.2,64.4,68.7,60.4,47.9,98,74,35,29.80,29.53,17,6,20,0.29
2013-6-2,73.7,65.0,60.0,55.0,52.4,48.5,75,64,46,29.93,29.77,13,6,19,0.00
2013-6-3,78.0,66.2,56.8,50.8,45.7,39.8,71,50,31,30.02,29.88,10,4,14,0.00
2013-6-4,82.0,66.6,52.3,54.6,49.7,46.7,87,58,33,29.99,29.86,10,3,13,0.00
2013-6-5,91.0,71.2,56.1,63.3,55.1,48.9,96,61,27,29.93,29.69,9,2,11,0.00
2013-6-6,84.3,71.7,61.7,63.8,54.4,44.0,96,58,30,29.77,29.70,12,5,15,0.00
2013-6-7,79.8,67.6,58.1,58.5,52.4,48.7,87,60,36,29.81,29.73,13,5,17,0.00
2013-6-8,88.1,71.3,54.8,61.1,51.7,42.9,96,57,22,29.88,29.75,9,2,13,0.00
2013-6-9,82.2,67.1,61.1,62.1,59.0,52.9,90,77,43,29.84,29.70,16,6,23,0.77
2013-6-10,86.7,71.4,64.2,62.1,58.9,51.7,90,70,32,29.83,29.69,12,6,16,0.00
2013-6-11,96.0,78.2,59.9,72.1,64.8,58.1,98,68,32,29.87,29.68,9,2,15,0.00
2013-6-12,98.7,85.1,69.0,73.8,66.7,61.1,96,58,30,29.82,29.56,14,6,22,0.00
2013-6-13,89.7,77.1,65.6,66.8,58.2,50.0,74,54,28,29.88,29.60,14,6,20,0.00
2013-6-14,91.4,75.7,60.6,64.8,56.1,49.8,94,56,26,30.00,29.81,11,3,15,0.00
2013-6-15,93.5,76.8,66.7,68.8,61.9,56.8,95,63,35,29.98,29.77,17,4,26,0.50
2013-6-16,93.0,77.1,68.5,71.1,67.5,60.5,98,75,43,29.92,29.75,8,3,12,0.04
2013-6-17,93.3,75.2,65.1,72.6,66.4,62.0,94,76,46,29.83,29.72,16,3,23,0.20
2013-6-18,95.1,78.2,61.5,69.1,59.2,48.9,98,59,22,29.87,29.74,12,4,18,0.00
2013-6-19,95.3,77.9,63.8,64.3,58.6,51.8,88,55,27,29.97,29.86,9,3,11,0.00
2013-6-20,95.3,80.9,64.7,69.1,62.9,56.7,96,59,29,29.99,29.86,10,3,15,0.00
2013-6-21,98.4,83.8,70.1,69.6,66.9,63.3,88,60,34,29.98,29.84,10,4,16,0.00
2013-6-22,96.6,77.3,70.5,73.8,65.4,57.8,76,67,38,29.99,29.86,12,4,17,0.00
2013-6-23,97.1,77.0,67.6,70.7,65.1,58.5,98,70,35,29.92,29.80,16,5,26,0.54
2013-6-24,98.0,81.6,67.1,74.0,67.6,61.6,98,68,33,29.94,29.76,10,4,16,0.00
2013-6-25,98.4,85.5,73.5,71.1,68.4,65.3,84,59,36,29.84,29.62,14,5,25,0.00
2013-6-26,98.9,80.8,74.3,75.2,71.4,62.3,97,76,38,29.73,29.57,31,4,46,0.50
2013-6-27,99.3,83.8,68.5,73.7,65.7,56.7,98,60,27,29.77,29.63,13,4,15,0.00
2013-6-28,93.3,82.3,72.6,70.3,58.6,43.1,86,50,19,29.76,29.57,17,6,26,0.00
2013-6-29,87.4,74.4,65.8,66.5,56.7,47.4,87,56,34,29.62,29.51,18,7,25,0.21
2013-6-30,85.2,70.9,64.9,66.5,61.0,54.7,91,73,41,29.80,29.62,14,7,25,0.29
2013-7-1,87.0,72.9,62.6,62.9,51.7,45.4,92,51,26,29.88,29.77,16,7,23,0.00
2013-7-2,69.6,66.0,63.1,61.2,55.6,45.5,91,70,44,29.95,29.83,11,4,15,0.21
2013-7-3,89.9,74.5,60.8,61.6,56.8,49.8,94,59,28,29.99,29.84,10,2,14,0.00
2013-7-4,92.8,77.3,61.3,64.4,56.3,50.5,91,53,27,30.00,29.84,8,3,13,0.00
2013-7-5,94.1,77.5,63.3,69.5,60.3,52.7,97,61,28,29.97,29.84,10,2,13,0.00
2013-7-6,95.1,77.8,66.0,72.2,62.7,51.4,98,66,27,29.92,29.80,13,2,17,0.00
2013-7-7,96.8,82.0,66.5,69.3,63.9,57.7,95,59,29,29.93,29.80,9,3,17,0.00
2013-7-8,98.9,83.3,73.5,71.6,67.1,64.0,77,61,34,29.97,29.86,9,3,13,0.00
2013-7-9,100.0,87.0,75.5,72.3,68.6,63.2,79,57,32,29.93,29.75,10,4,17,0.00
2013-7-10,94.4,80.3,70.7,74.4,69.1,60.4,98,71,38,29.95,29.74,12,5,22,1.15
2013-7-11,89.4,77.0,66.0,66.2,58.3,49.2,91,57,28,29.93,29.85,11,4,16,0.00
2013-7-12,91.9,76.1,60.9,67.3,55.0,45.5,96,55,22,30.00,29.87,10,3,15,0.00
2013-7-13,92.1,77.2,58.2,65.0,55.8,50.1,93,53,25,29.99,29.86,9,3,13,0.00
2013-7-14,95.0,80.8,65.6,66.7,61.7,55.3,91,56,29,30.03,29.92,11,4,17,0.00
2013-7-15,96.6,82.8,70.8,76.2,68.4,61.5,96,66,33,30.12,29.98,13,3,19,0.00
2013-7-16,99.3,85.2,72.3,77.6,69.0,59.8,98,63,30,30.17,30.07,9,3,12,0.00
2013-7-17,100.0,85.5,72.6,77.3,69.4,63.4,96,63,34,30.21,30.04,8,2,11,0.00
2013-7-18,100.9,87.6,73.2,77.9,68.8,57.8,97,59,27,30.09,29.86,9,2,11,0.00
2013-7-19,100.2,86.6,74.1,73.3,68.8,63.2,88,59,31,29.91,29.68,8,3,13,0.00
2013-7-20,98.4,83.1,73.2,71.8,66.9,53.5,87,61,30,29.79,29.62,15,4,24,0.00
2013-7-21,87.2,77.7,72.6,72.9,68.6,65.4,90,74,55,29.81,29.70,7,3,11,0.00
2013-7-22,96.0,81.6,69.4,75.7,69.3,63.1,98,71,37,29.74,29.62,8,2,13,0.00
2013-7-23,95.7,84.2,72.3,73.1,66.7,58.0,90,59,35,29.79,29.61,11,5,17,0.00
2013-7-24,85.1,74.9,64.2,60.3,52.7,47.0,77,49,29,29.92,29.76,11,5,17,0.00
2013-7-25,89.6,75.1,58.4,63.9,53.8,49.2,93,52,28,30.01,29.88,8,2,13,0.00
2013-7-26,76.6,71.2,67.2,68.9,61.4,54.7,93,72,61,29.95,29.82,11,3,13,0.17
2013-7-27,82.4,70.3,58.2,66.6,52.8,41.9,95,59,30,29.90,29.82,13,5,18,0.00
2013-7-28,86.1,70.2,52.7,60.5,48.2,38.7,96,53,20,29.94,29.84,11,3,13,0.00
2013-7-29,78.4,68.8,56.8,63.5,58.0,52.6,94,70,49,30.04,29.93,7,2,9,0.00
2013-7-30,81.1,71.9,65.1,71.2,66.7,59.7,98,84,66,30.01,29.85,10,5,15,1.20
2013-7-31,86.0,74.9,66.0,75.7,67.9,62.1,98,81,50,29.92,29.87,13,4,17,0.04
2013-8-1,91.5,76.6,64.2,69.3,61.8,51.3,98,66,29,29.99,29.85,8,2,11,0.00
2013-8-2,84.7,73.4,66.7,70.9,66.5,62.0,98,81,52,29.89,29.76,9,2,13,0.49
2013-8-3,89.2,77.2,67.6,73.9,67.1,59.6,98,74,45,30.01,29.80,11,4,14,0.00
2013-8-4,86.1,74.0,62.2,68.2,57.5,48.9,96,60,31,30.06,29.94,9,2,13,0.00
2013-8-5,80.4,72.0,67.6,67.9,62.5,57.2,89,72,57,29.98,29.73,9,4,15,0.00
2013-8-6,91.5,79.3,70.8,73.6,68.4,62.7,98,73,40,29.80,29.69,8,3,12,0.00
2013-8-7,93.5,80.5,72.6,72.5,68.0,60.7,96,69,38,29.79,29.67,9,4,13,0.00
2013-8-8,85.1,75.4,70.1,74.9,70.0,67.6,97,84,67,29.89,29.75,9,3,11,0.62
2013-8-9,88.3,75.2,67.1,76.0,67.2,64.2,98,78,49,29.98,29.83,8,2,10,0.00
2013-8-10,89.7,77.7,66.5,74.1,60.9,49.5,98,61,30,30.04,29.93,11,4,15,0.04
2013-8-11,91.5,76.0,59.3,65.9,56.3,46.4,97,57,23,30.07,29.87,9,2,11,0.00
2013-8-12,83.1,74.2,68.5,76.1,65.5,57.2,90,75,59,29.98,29.75,7,2,9,0.04
2013-8-13,86.9,72.8,63.6,68.1,61.0,51.9,97,69,41,30.01,29.83,12,5,15,0.00
2013-8-14,81.6,67.7,53.9,59.8,48.4,42.9,92,54,29,30.11,30.00,10,3,15,0.00
2013-8-15,82.7,67.9,56.3,63.1,50.6,44.2,94,60,29,30.06,29.94,10,3,13,0.00
2013-8-16,82.9,70.0,57.3,62.6,52.0,46.7,91,57,30,30.07,29.97,12,3,16,0.00
2013-8-17,86.9,71.6,57.7,61.7,55.0,50.7,93,60,31,30.09,29.94,10,3,12,0.00
2013-8-18,89.9,73.8,61.7,63.2,58.1,52.7,90,62,30,30.07,29.94,10,2,11,0.00
2013-8-19,92.8,76.7,62.2,67.6,60.5,53.9,98,63,29,30.02,29.88,7,1,11,0.00
2013-8-20,94.1,78.5,64.4,70.1,62.1,54.9,98,62,30,30.00,29.87,8,2,9,0.00
2013-8-21,95.0,79.9,66.2,72.3,63.1,54.0,98,63,28,30.00,29.86,9,2,13,0.00
2013-8-22,97.1,82.0,69.6,72.9,67.1,61.2,92,65,32,29.98,29.87,9,2,13,0.00
2013-8-23,96.2,82.4,71.9,74.9,67.0,59.7,97,64,35,30.00,29.86,10,3,13,0.00
2013-8-24,96.8,82.0,66.7,73.8,62.4,54.0,97,57,28,30.09,29.97,9,3,12,0.00
2013-8-25,96.8,81.3,64.7,70.3,61.0,51.6,94,56,23,30.16,29.98,8,2,10,0.00
2013-8-26,99.5,84.5,72.3,75.2,66.9,56.8,96,60,26,30.12,29.92,9,3,13,0.00
2013-8-27,99.5,84.4,71.4,75.0,64.4,55.4,94,57,25,29.99,29.80,10,3,15,0.00
2013-8-28,100.5,83.8,68.3,72.9,62.7,54.5,95,56,24,29.92,29.80,9,2,15,0.00
2013-8-29,103.4,85.5,70.5,73.7,65.8,57.3,91,57,25,29.92,29.80,10,2,13,0.00
2013-8-30,104.1,87.7,73.2,76.5,66.2,54.4,92,55,20,29.85,29.65,9,2,16,0.00
2013-8-31,105.2,88.7,75.2,73.8,64.3,50.7,85,50,17,29.73,29.55,12,4,15,0.00
2013-9-1,98.0,84.4,73.4,76.3,68.3,62.3,93,62,33,29.73,29.62,11,3,15,0.00
2013-9-2,91.9,78.6,67.4,68.4,56.2,50.5,80,49,27,29.89,29.70,13,5,16,0.00
2013-9-3,90.1,73.7,58.4,60.4,51.9,42.6,84,52,21,30.00,29.83,8,2,11,0.00
2013-9-4,93.7,75.2,58.4,62.5,52.3,40.9,93,53,18,30.04,29.93,8,2,10,0.00
2013-9-5,94.4,75.6,60.4,63.8,55.5,45.6,90,56,20,30.09,29.98,9,2,11,0.00
2013-9-6,95.9,78.5,63.5,67.3,57.2,43.4,91,55,18,30.07,29.87,9,2,14,0.00
2013-9-7,99.5,79.9,62.7,67.6,57.6,45.7,93,54,17,29.92,29.76,10,2,14,0.00
2013-9-8,90.6,78.0,71.0,73.4,65.8,60.7,96,68,40,29.92,29.75,9,3,15,0.33
2013-9-9,102.9,84.8,71.9,74.6,65.5,51.9,95,60,20,29.85,29.74,9,2,15,0.00
2013-9-10,102.0,84.7,71.0,73.7,60.7,44.8,94,54,15,29.97,29.82,10,2,16,0.00
2013-9-11,100.7,81.4,72.1,66.4,61.6,46.1,69,56,16,29.97,29.86,6,2,8,0.00
2013-9-12,91.5,78.6,66.0,68.6,57.0,43.0,80,50,27,29.98,29.84,11,4,17,0.00
2013-9-13,83.3,68.0,54.8,55.1,43.8,36.5,75,44,23,30.04,29.93,12,4,15,0.00
2013-9-14,83.6,66.1,49.4,51.6,39.4,30.2,75,43,16,30.06,29.89,9,2,11,0.00
2013-9-15,87.8,69.4,54.3,63.6,48.8,38.8,87,51,26,29.98,29.82,10,4,15,0.00
2013-9-16,79.1,65.8,59.1,64.0,53.4,46.7,89,67,35,30.16,29.98,12,6,16,0.00
2013-9-17,73.2,65.1,59.3,63.5,56.0,50.3,92,73,55,30.14,29.95,8,3,9,0.05
2013-9-18,92.3,75.1,65.6,72.3,64.4,59.5,98,73,38,29.98,29.81,11,3,15,0.29
2013-9-19,96.0,82.0,71.4,71.9,65.5,58.3,87,60,31,29.88,29.69,9,4,15,0.00
2013-9-20,77.5,68.9,58.6,69.6,62.1,50.0,98,80,55,29.83,29.73,13,3,15,0.77
2013-9-21,77.5,63.6,52.7,55.4,46.1,38.9,91,58,27,29.88,29.78,12,4,18,0.00
2013-9-22,82.5,64.7,47.1,56.2,45.6,38.4,95,57,23,29.95,29.79,9,2,11,0.00
2013-9-23,83.3,66.0,49.2,58.8,45.9,40.2,95,54,24,29.95,29.76,13,4,20,0.00
2013-9-24,87.0,69.1,54.3,66.1,53.4,44.6,98,61,31,29.87,29.63,12,4,17,0.63
2013-9-25,88.3,72.6,64.5,75.5,63.2,55.8,98,77,39,29.77,29.65,8,2,10,0.00
2013-9-26,90.3,73.7,59.9,69.0,58.2,51.0,98,64,29,29.89,29.74,10,3,13,0.00
2013-9-27,87.6,73.3,59.7,65.4,55.5,48.7,96,58,29,29.99,29.84,13,4,17,0.00
2013-9-28,88.7,73.1,61.8,67.2,58.1,52.9,89,62,32,29.94,29.79,14,4,22,0.00
2013-9-29,82.2,67.2,53.7,63.2,49.2,38.4,90,58,24,30.01,29.83,12,4,15,0.00
2013-9-30,86.9,65.2,48.9,62.3,53.3,46.2,94,70,31,29.91,29.72,9,2,13,0.00
2013-10-1,87.9,72.7,63.6,67.8,63.6,58.2,97,76,40,29.92,29.80,11,4,15,0.00
2013-10-2,91.2,75.8,65.8,77.5,65.9,58.4,98,76,35,29.95,29.81,11,3,17,0.00
2013-10-3,92.1,78.2,67.2,70.2,64.1,55.7,94,66,32,29.86,29.69,11,5,21,0.00
2013-10-4,93.2,78.7,68.3,72.6,65.1,56.7,98,67,33,29.88,29.72,13,5,18,0.00
2013-10-5,78.2,68.9,55.0,70.8,63.1,50.9,96,82,57,29.85,29.70,13,4,15,0.12
2013-10-6,63.8,54.5,47.3,53.9,41.2,32.1,98,65,35,29.82,29.74,16,5,24,0.00
2013-10-7,78.4,60.0,50.3,47.1,43.0,35.1,81,58,23,30.06,29.79,11,4,16,0.00
2013-10-8,81.5,62.1,45.8,55.6,43.5,35.6,95,58,21,30.12,30.00,11,2,16,0.00
2013-10-9,82.5,62.4,43.8,52.5,44.0,37.3,93,57,21,30.11,29.95,9,2,13,0.00
2013-10-10,86.7,67.1,51.8,59.5,51.6,47.2,93,63,29,30.06,29.85,11,2,13,0.00
2013-10-11,85.4,67.7,53.4,64.3,52.6,44.2,98,65,25,29.93,29.72,16,4,21,0.00
2013-10-12,86.9,67.7,50.7,60.8,50.7,36.3,83,58,27,30.15,29.80,11,3,15,0.00
2013-10-13,82.5,60.7,42.6,52.6,34.4,19.0,90,47,12,30.30,30.09,9,3,13,0.00
2013-10-14,71.4,57.4,44.2,50.0,37.9,30.5,73,51,26,30.28,29.95,10,4,13,0.00
2013-10-15,69.2,62.6,53.6,64.4,56.0,45.8,98,80,63,29.96,29.77,9,4,13,0.21
2013-10-16,67.4,53.6,43.7,45.8,37.6,33.7,80,57,33,30.00,29.87,11,4,17,0.00
2013-10-17,71.2,54.9,45.1,51.2,38.8,27.8,87,61,22,29.94,29.77,13,3,18,0.00
2013-10-18,68.9,53.6,43.3,44.9,35.6,25.6,84,55,23,30.00,29.85,13,5,16,0.04
2013-10-19,64.2,49.0,39.0,41.5,33.2,25.7,88,59,25,29.98,29.83,12,5,20,0.17
2013-10-20,77.0,57.4,40.2,41.0,34.5,28.3,78,47,18,29.89,29.70,14,4,19,0.00
2013-10-21,63.8,50.8,35.4,42.5,33.0,23.2,74,52,26,30.01,29.81,11,4,16,0.00
2013-10-22,66.2,46.0,33.8,43.0,33.8,27.7,84,64,33,30.05,29.65,17,5,25,0.04
2013-10-23,58.2,44.7,35.6,35.7,28.4,19.7,79,56,26,30.07,29.95,13,6,17,0.00
2013-10-24,52.8,42.8,39.2,34.2,29.3,18.0,79,62,28,30.24,30.04,17,6,24,0.00
2013-10-25,63.8,48.7,25.5,32.6,23.6,14.8,82,41,19,30.46,30.13,9,2,13,0.00
2013-10-26,71.4,51.2,35.4,36.7,26.1,18.5,54,39,23,30.16,29.89,14,5,19,0.00
2013-10-27,67.6,45.4,28.2,35.6,24.2,-11.0,79,50,4,30.11,29.92,9,2,13,0.00
2013-10-28,77.7,51.4,32.0,41.9,33.3,26.2,87,56,21,30.15,29.99,7,2,10,0.00
2013-10-29,57.7,53.3,46.9,56.9,45.0,33.1,98,75,53,30.18,29.96,9,4,15,0.12
2013-10-30,76.1,64.9,56.4,69.7,60.9,55.9,98,88,70,29.99,29.71,11,4,22,0.04
2013-10-31,67.4,60.4,46.4,66.2,57.8,43.8,98,91,78,29.71,29.26,16,5,21,0.54
2013-11-1,67.4,53.6,44.0,52.1,40.6,31.3,98,66,32,29.79,29.55,17,5,26,0.00
2013-11-2,61.3,47.9,35.2,41.8,34.5,28.6,84,62,32,30.17,29.76,17,5,23,0.00
2013-11-3,64.5,47.3,30.2,43.4,29.9,24.9,96,57,24,30.26,30.02,15,4,20,0.00
2013-11-4,63.6,53.6,47.1,42.2,35.4,29.7,60,50,35,30.14,29.98,13,6,19,0.00
2013-11-5,62.0,56.8,52.7,53.6,48.2,42.5,93,73,61,30.18,29.90,13,6,19,0.17
2013-11-6,59.0,48.8,36.5,58.4,43.5,30.4,98,82,65,30.19,29.81,19,7,28,0.29
2013-11-7,61.8,43.5,29.3,39.8,29.6,24.1,98,63,27,30.34,30.14,13,3,18,0.00
2013-11-8,64.0,46.9,27.3,36.6,26.0,18.1,91,50,18,30.36,29.96,13,5,20,0.00
2013-11-9,73.4,54.8,41.5,36.4,31.8,22.4,75,45,19,30.18,29.94,12,4,19,0.00
2013-11-10,63.6,47.0,35.4,36.7,27.0,18.7,76,49,24,30.36,30.15,10,2,13,0.00
2013-11-11,68.3,47.9,32.7,42.1,34.7,28.1,89,63,34,30.44,30.01,17,6,24,0.04
2013-11-12,43.7,31.1,20.6,28.1,12.7,6.4,83,48,28,30.77,30.44,14,6,20,0.00
2013-11-13,20.8,18.7,17.7,10.9,10.1,9.3,73,69,62,30.67,30.61,2,0,3,0.00
2013-11-14,50.9,48.1,43.3,17.3,15.2,9.0,34,27,19,30.00,29.94,7,4,12,0.00
2013-11-15,53.0,44.1,40.6,31.4,23.9,16.2,58,45,34,30.01,29.95,6,2,9,0.00
2013-11-16,65.3,62.6,59.3,58.7,54.3,51.0,85,75,65,29.62,29.50,19,9,27,0.00
2013-11-17,82.0,66.0,46.9,63.1,41.1,14.3,93,49,13,29.91,29.24,29,10,46,0.00
2013-11-18,61.7,46.0,31.6,39.8,26.0,16.0,85,50,19,30.26,29.91,15,4,21,0.00
2013-11-19,56.1,38.8,27.5,29.8,21.9,17.7,80,54,26,30.33,30.13,11,3,11,0.00
2013-11-20,50.3,41.8,35.6,35.6,29.0,21.4,81,61,49,30.17,29.92,14,6,17,0.16
2013-11-21,51.4,50.0,47.4,49.9,44.8,35.4,98,83,60,30.12,29.97,7,2,13,0.33
2013-11-22,49.8,38.3,32.5,49.2,33.2,25.5,98,82,70,30.50,30.12,14,8,20,0.04
2013-11-23,37.5,28.2,16.8,26.1,12.0,2.6,80,52,29,30.73,30.47,17,8,21,0.00
2013-11-24,38.1,24.1,13.2,12.1,4.4,0.2,66,44,24,30.77,30.42,10,4,13,0.00
2013-11-25,37.7,32.9,26.9,17.9,10.9,6.9,50,40,32,30.42,30.11,10,4,13,0.00
2013-11-26,42.4,32.7,23.0,24.1,15.8,4.3,67,50,41,30.27,30.04,20,6,26,0.00
2013-11-27,36.1,23.7,16.1,9.2,4.0,-1.0,57,43,27,30.39,30.24,13,5,17,0.00
2013-11-28,53.0,33.4,17.7,19.0,12.0,4.5,57,42,26,30.51,30.18,13,4,20,0.00
2013-11-29,52.7,33.9,17.9,25.7,16.1,9.9,74,50,27,30.59,30.32,9,3,11,0.00
2013-11-30,66.3,40.5,23.5,36.4,25.5,18.3,89,60,25,30.33,29.98,9,2,14,0.00
2013-12-1,66.2,43.2,26.9,38.7,29.6,23.8,93,63,27,30.11,29.83,6,1,8,0.00
2013-12-2,64.7,44.0,35.2,40.3,32.9,27.9,93,67,36,29.86,29.53,6,2,9,0.00
2013-12-3,66.0,50.0,36.6,52.8,44.3,34.5,98,83,46,29.62,29.47,11,3,17,0.00
2013-12-4,71.7,55.1,37.9,57.0,45.9,26.2,98,75,37,29.83,29.37,16,6,24,0.00
2013-12-5,37.5,27.2,21.9,26.1,13.4,6.5,75,56,44,30.27,29.83,15,8,20,0.00
2013-12-6,24.9,20.3,13.8,8.9,3.0,-2.0,54,46,40,30.58,30.24,12,8,16,0.00
2013-12-7,31.1,18.9,10.2,6.8,-0.2,-6.0,59,42,31,30.70,30.42,11,5,15,0.00
2013-12-8,28.7,24.5,20.1,23.3,17.2,2.8,88,74,43,30.42,29.94,9,5,13,0.00
2013-12-9,28.7,24.2,19.9,22.4,9.9,4.7,81,55,42,30.30,30.02,13,6,17,0.00
2013-12-10,42.2,24.6,12.2,11.8,6.3,1.6,68,48,26,30.28,30.16,15,4,22,0.00
2013-12-11,37.4,22.7,10.4,21.1,5.7,-10.0,79,50,32,30.65,30.25,14,5,22,0.00
2013-12-12,44.6,23.9,7.5,10.0,0.0,-13.0,60,36,20,30.65,30.18,10,3,15,0.00
2013-12-13,37.0,29.5,18.3,32.4,20.2,6.1,96,70,37,30.21,29.87,8,3,13,0.29
2013-12-14,39.3,31.8,26.0,35.2,28.0,20.4,98,86,71,30.12,29.78,14,6,20,0.00
2013-12-15,45.3,30.0,19.7,23.6,18.7,13.4,79,64,38,30.18,29.93,11,4,20,0.08
2013-12-16,50.1,30.7,21.5,29.4,21.8,17.8,90,71,38,30.09,29.93,10,3,15,0.13
2013-12-17,51.2,32.9,21.2,32.4,20.3,9.5,91,63,37,30.24,30.09,11,4,15,0.04
2013-12-18,58.8,37.1,16.3,30.2,18.5,9.2,84,51,22,30.25,29.82,14,4,17,0.00
2013-12-19,60.8,50.9,40.1,47.4,39.0,29.0,75,64,49,29.86,29.66,11,5,19,0.00
2013-12-20,69.9,50.9,35.4,54.8,42.6,30.1,85,74,53,29.80,29.59,16,6,19,0.00
2013-12-21,35.4,33.1,32.0,32.7,31.8,30.2,98,95,84,29.81,29.48,12,4,16,0.66
2013-12-22,35.2,31.9,26.2,33.1,27.8,18.1,98,85,70,30.24,29.60,15,5,24,0.09
2013-12-23,32.5,21.1,10.0,18.6,9.2,-1.0,73,60,42,30.59,30.24,14,8,17,0.00
2013-12-24,28.2,16.9,5.0,4.0,-1.2,-6.0,59,45,28,30.62,30.30,14,6,22,0.00
2013-12-25,37.0,31.2,22.8,27.1,18.9,3.7,78,61,43,30.33,30.16,10,5,16,0.00
2013-12-26,53.2,35.1,20.1,29.7,19.9,13.5,93,58,26,30.32,30.15,9,3,13,0.00
2013-12-27,59.5,36.5,22.4,29.5,20.0,15.6,81,55,24,30.32,30.14,9,2,10,0.00
2013-12-28,60.6,43.4,25.3,35.5,21.8,16.7,84,47,22,30.18,29.82,10,3,19,0.00
2013-12-29,40.4,28.2,15.4,28.3,15.2,-2.0,74,58,44,30.22,29.80,17,8,24,0.00
2013-12-30,31.1,20.6,8.9,5.8,-1.8,-8.0,50,37,25,30.32,30.15,9,4,11,0.00
2013-12-31,48.5,34.4,21.3,17.3,12.2,5.1,56,40,27,30.35,30.04,9,4,13,0.00
2014-1-1,48.0,34.0,23.0,27.6,19.4,12.8,87,57,38,30.10,29.92,13,5,19,0.00
2014-1-2,32.1,18.1,3.2,18.6,4.4,-9.0,83,56,32,30.48,30.00,14,8,20,0.00